Terminal Aerodrome Forecast
Issued by NWS Sterling, VA

Current Version | Previous Version | Graphics & Text | Print | Product List | Glossary On
Versions: 1 2 3 4 5 6 7 8 9 10 11 12 13 14 15 16 17 18 19 20 21 22 23 24 25 26
000
FTUS41 KLWX 011100
TAFIAD
TAF
KIAD 011131Z 0112/0218 00000KT P6SM BKN060
     FM011600 27004KT P6SM BKN060
     FM011800 25005KT P6SM VCTS BKN050CB
     FM012100 29008KT P6SM BKN050
     FM020200 VRB03KT P6SM SCT050
     FM021200 VRB03KT P6SM FEW250=

USA.gov is the U.S. government's official web portal to all federal, state and local government web resources and services.